createdAt,value
2018-11-02T00:00:13.214Z,998.95
2018-11-02T00:01:13.136Z,998.94
2018-11-02T00:02:13.152Z,998.93
2018-11-02T00:03:13.186Z,999.01
2018-11-02T00:04:13.209Z,998.96
2018-11-02T00:05:13.205Z,998.96
2018-11-02T00:06:13.275Z,998.91
2018-11-02T00:07:13.247Z,998.91
2018-11-02T00:08:13.265Z,998.88
2018-11-02T00:09:13.287Z,998.90
2018-11-02T00:10:13.308Z,998.89
2018-11-02T00:11:13.329Z,998.84
2018-11-02T00:12:13.373Z,998.83
2018-11-02T00:13:13.355Z,998.81
2018-11-02T00:14:13.374Z,998.83
2018-11-02T00:15:13.397Z,998.81
2018-11-02T00:16:13.424Z,998.86
2018-11-02T00:17:13.435Z,998.89
2018-11-02T00:18:13.458Z,998.96
2018-11-02T00:19:13.476Z,999.00
2018-11-02T00:20:13.505Z,999.07
2018-11-02T00:21:13.509Z,999.06
2018-11-02T00:22:13.533Z,999.08
2018-11-02T00:23:13.568Z,999.08
2018-11-02T00:24:13.572Z,999.08
2018-11-02T00:25:13.583Z,999.08
2018-11-02T00:26:13.605Z,999.13
2018-11-02T00:27:13.622Z,999.11
2018-11-02T00:28:13.640Z,999.12
2018-11-02T00:29:13.664Z,999.14
2018-11-02T00:30:13.684Z,999.17
2018-11-02T00:31:13.697Z,999.18
2018-11-02T00:32:13.722Z,999.21
2018-11-02T00:33:13.766Z,999.20
2018-11-02T00:34:13.754Z,999.20
2018-11-02T00:35:13.772Z,999.21
2018-11-02T00:36:13.792Z,999.15
2018-11-02T00:37:13.817Z,999.11
2018-11-02T00:38:13.840Z,999.07
2018-11-02T00:39:13.854Z,999.02
2018-11-02T00:40:13.888Z,999.02
2018-11-02T00:41:13.883Z,999.01
2018-11-02T00:42:13.906Z,998.99
2018-11-02T00:43:13.937Z,999.08
2018-11-02T00:44:14.030Z,999.08
2018-11-02T00:45:13.961Z,999.08
2018-11-02T00:46:13.992Z,999.13
2018-11-02T00:47:14.094Z,999.12
2018-11-02T00:48:14.032Z,999.12
2018-11-02T00:49:14.040Z,999.09
2018-11-02T00:50:14.072Z,999.06
2018-11-02T00:51:14.095Z,999.05
2018-11-02T00:52:14.095Z,999.04
2018-11-02T00:53:14.117Z,999.05
2018-11-02T00:54:14.144Z,999.07
2018-11-02T00:55:14.156Z,999.08
2018-11-02T00:56:14.196Z,999.05
2018-11-02T00:57:14.190Z,999.10
2018-11-02T00:58:14.221Z,999.12
2018-11-02T00:59:14.230Z,999.13
2018-11-02T01:00:14.248Z,999.12
2018-11-02T01:01:14.265Z,999.15
2018-11-02T01:02:14.308Z,999.15
2018-11-02T01:03:14.309Z,999.16
2018-11-02T01:04:14.342Z,999.20
2018-11-02T01:05:14.343Z,999.17
2018-11-02T01:06:14.369Z,999.14
2018-11-02T01:07:14.380Z,999.12
2018-11-02T01:08:14.399Z,999.13
2018-11-02T01:09:14.439Z,999.12
2018-11-02T01:10:14.478Z,999.18
2018-11-02T01:11:14.478Z,999.19
2018-11-02T01:12:14.484Z,999.24
2018-11-02T01:13:14.494Z,999.25
2018-11-02T01:14:14.516Z,999.28
2018-11-02T01:15:14.532Z,999.30
2018-11-02T01:16:14.559Z,999.32
2018-11-02T01:17:14.583Z,999.33
2018-11-02T01:18:14.615Z,999.32
2018-11-02T01:19:14.610Z,999.34
2018-11-02T01:20:14.629Z,999.35
2018-11-02T01:21:14.645Z,999.32
2018-11-02T01:22:14.668Z,999.31
2018-11-02T01:23:14.688Z,999.26
2018-11-02T01:24:14.715Z,999.21
2018-11-02T01:25:14.727Z,999.25
2018-11-02T01:26:14.758Z,999.32
2018-11-02T01:27:14.761Z,999.32
2018-11-02T01:28:14.826Z,999.42
2018-11-02T01:29:14.819Z,999.34
2018-11-02T01:30:14.820Z,999.35
2018-11-02T01:31:14.842Z,999.30
2018-11-02T01:32:14.856Z,999.27
2018-11-02T01:33:14.907Z,999.25
2018-11-02T01:34:14.903Z,999.29
2018-11-02T01:35:14.916Z,999.28
2018-11-02T01:36:14.937Z,999.35
2018-11-02T01:37:14.948Z,999.34
2018-11-02T01:38:14.972Z,999.33
2018-11-02T01:39:14.989Z,999.31
2018-11-02T01:40:15.084Z,999.31
2018-11-02T01:41:15.030Z,999.34
2018-11-02T01:42:15.050Z,999.27
2018-11-02T01:43:15.069Z,999.39
2018-11-02T01:44:15.083Z,999.43
2018-11-02T01:45:15.106Z,999.44
2018-11-02T01:46:15.121Z,999.46
2018-11-02T01:47:15.139Z,999.44
2018-11-02T01:48:15.165Z,999.46
2018-11-02T01:49:15.186Z,999.51
2018-11-02T01:50:15.197Z,999.52
2018-11-02T01:51:15.213Z,999.55
2018-11-02T01:52:15.247Z,999.56
2018-11-02T01:53:15.258Z,999.57
2018-11-02T01:54:15.279Z,999.59
2018-11-02T01:55:15.295Z,999.57
2018-11-02T01:56:15.315Z,999.58
2018-11-02T01:57:15.328Z,999.59
2018-11-02T01:58:15.352Z,999.56
2018-11-02T01:59:15.378Z,999.54
2018-11-02T02:00:15.385Z,999.53
2018-11-02T02:01:15.400Z,999.60
2018-11-02T02:02:15.425Z,999.56
2018-11-02T02:03:15.441Z,999.64
2018-11-02T02:04:15.464Z,999.61
2018-11-02T02:05:15.482Z,999.68
2018-11-02T02:06:15.516Z,999.72
2018-11-02T02:07:15.515Z,999.80
2018-11-02T02:08:15.540Z,999.81
2018-11-02T02:09:15.557Z,999.75
2018-11-02T02:10:15.603Z,999.77
2018-11-02T02:11:15.590Z,999.80
2018-11-02T02:12:15.610Z,999.79
2018-11-02T02:13:15.742Z,999.79
2018-11-02T02:14:15.690Z,999.72
2018-11-02T02:15:15.667Z,999.72
2018-11-02T02:16:15.684Z,999.75
2018-11-02T02:17:15.704Z,999.79
2018-11-02T02:18:15.726Z,999.87
2018-11-02T02:19:15.739Z,999.86
2018-11-02T02:20:15.761Z,999.88
2018-11-02T02:21:15.776Z,999.88
2018-11-02T02:22:15.794Z,999.85
2018-11-02T02:23:15.815Z,999.91
2018-11-02T02:24:15.831Z,999.91
2018-11-02T02:25:15.857Z,999.93
2018-11-02T02:26:15.874Z,999.93
2018-11-02T02:27:15.890Z,999.94
2018-11-02T02:28:15.908Z,999.93
2018-11-02T02:29:15.931Z,999.96
2018-11-02T02:30:15.948Z,999.97
2018-11-02T02:31:15.971Z,999.98
2018-11-02T02:32:15.986Z,999.97
2018-11-02T02:33:16.000Z,999.93
2018-11-02T02:34:16.022Z,999.97
2018-11-02T02:35:16.040Z,999.97
2018-11-02T02:36:16.070Z,999.96
2018-11-02T02:37:16.076Z,999.97
2018-11-02T02:38:16.103Z,999.99
2018-11-02T02:39:16.117Z,1000.00
2018-11-02T02:40:16.138Z,1000.01
2018-11-02T02:41:16.172Z,999.99
2018-11-02T02:42:16.199Z,999.99
2018-11-02T02:43:16.187Z,1000.02
2018-11-02T02:44:16.208Z,999.94
2018-11-02T02:45:16.229Z,999.94
2018-11-02T02:46:16.248Z,999.91
2018-11-02T02:47:16.265Z,999.94
2018-11-02T02:48:16.312Z,999.86
2018-11-02T02:49:16.302Z,999.93
2018-11-02T02:50:16.322Z,999.90
2018-11-02T02:51:16.342Z,999.94
2018-11-02T02:52:16.364Z,999.98
2018-11-02T02:53:16.375Z,999.94
2018-11-02T02:54:16.401Z,999.94
2018-11-02T02:55:16.420Z,999.91
2018-11-02T02:56:16.439Z,999.95
2018-11-02T02:57:16.454Z,999.98
2018-11-02T02:58:16.470Z,1000.03
2018-11-02T02:59:16.500Z,999.91
2018-11-02T03:00:16.508Z,999.96
2018-11-02T03:01:16.540Z,999.98
2018-11-02T03:02:16.545Z,1000.00
2018-11-02T03:03:16.593Z,999.97
2018-11-02T03:04:16.592Z,1000.00
2018-11-02T03:05:16.607Z,1000.00
2018-11-02T03:06:16.623Z,999.97
2018-11-02T03:07:16.655Z,999.99
2018-11-02T03:08:16.662Z,1000.02
2018-11-02T03:09:16.681Z,999.97
2018-11-02T03:10:16.770Z,999.98
2018-11-02T03:11:16.830Z,999.95
2018-11-02T03:12:16.738Z,1000.02
2018-11-02T03:13:16.760Z,999.98
2018-11-02T03:14:16.776Z,999.94
2018-11-02T03:15:16.830Z,1000.02
2018-11-02T03:16:16.822Z,1000.08
2018-11-02T03:17:16.833Z,1000.12
2018-11-02T03:18:16.864Z,1000.07
2018-11-02T03:19:16.875Z,1000.04
2018-11-02T03:20:16.893Z,1000.06
2018-11-02T03:21:16.908Z,1000.10
2018-11-02T03:22:16.938Z,1000.07
2018-11-02T03:23:16.947Z,1000.11
2018-11-02T03:24:16.966Z,1000.15
2018-11-02T03:25:16.986Z,1000.17
2018-11-02T03:26:17.009Z,1000.15
2018-11-02T03:27:17.033Z,1000.19
2018-11-02T03:28:17.042Z,1000.21
2018-11-02T03:29:17.060Z,1000.24
2018-11-02T03:30:17.089Z,1000.22
2018-11-02T03:31:17.132Z,1000.25
2018-11-02T03:32:17.126Z,1000.20
2018-11-02T03:33:17.140Z,1000.21
2018-11-02T03:34:17.155Z,1000.26
2018-11-02T03:35:17.182Z,1000.24
2018-11-02T03:36:17.196Z,1000.26
2018-11-02T03:37:17.216Z,1000.28
2018-11-02T03:38:17.229Z,1000.21
2018-11-02T03:39:17.252Z,1000.23
2018-11-02T03:40:17.273Z,1000.21
2018-11-02T03:41:17.288Z,1000.17
2018-11-02T03:42:17.313Z,1000.22
2018-11-02T03:43:17.325Z,1000.19
2018-11-02T03:44:17.351Z,1000.20
2018-11-02T03:45:17.378Z,1000.22
2018-11-02T03:46:17.384Z,1000.30
2018-11-02T03:47:17.407Z,1000.30
2018-11-02T03:48:17.422Z,1000.31
2018-11-02T03:49:17.447Z,1000.29
2018-11-02T03:50:17.477Z,1000.29
2018-11-02T03:51:17.477Z,1000.34
2018-11-02T03:52:17.505Z,1000.34
2018-11-02T03:53:17.532Z,1000.34
2018-11-02T03:54:17.538Z,1000.33
2018-11-02T03:55:17.561Z,1000.33
2018-11-02T03:56:17.576Z,1000.31
2018-11-02T03:57:17.599Z,1000.36
2018-11-02T03:58:17.640Z,1000.43
2018-11-02T03:59:17.677Z,1000.41
2018-11-02T04:00:17.665Z,1000.49
2018-11-02T04:01:17.672Z,1000.46
2018-11-02T04:02:17.692Z,1000.49
2018-11-02T04:03:17.717Z,1000.52
2018-11-02T04:04:17.731Z,1000.55
2018-11-02T04:05:17.758Z,1000.56
2018-11-02T04:06:17.772Z,1000.56
2018-11-02T04:07:17.791Z,1000.57
2018-11-02T04:08:17.823Z,1000.57
2018-11-02T04:09:17.858Z,1000.56
2018-11-02T04:10:17.847Z,1000.55
2018-11-02T04:11:17.875Z,1000.59
2018-11-02T04:12:17.895Z,1000.60
2018-11-02T04:13:17.905Z,1000.62
2018-11-02T04:14:17.924Z,1000.62
2018-11-02T04:15:17.956Z,1000.65
2018-11-02T04:16:17.965Z,1000.66
2018-11-02T04:17:17.992Z,1000.71
2018-11-02T04:18:18.003Z,1000.71
2018-11-02T04:19:18.028Z,1000.71
2018-11-02T04:20:18.041Z,1000.71
2018-11-02T04:21:18.068Z,1000.72
2018-11-02T04:22:18.099Z,1000.74
2018-11-02T04:23:18.107Z,1000.78
2018-11-02T04:24:18.125Z,1000.77
2018-11-02T04:25:18.138Z,1000.77
2018-11-02T04:26:18.167Z,1000.81
2018-11-02T04:27:18.203Z,1000.79
2018-11-02T04:28:18.200Z,1000.81
2018-11-02T04:29:18.222Z,1000.80
2018-11-02T04:30:18.236Z,1000.80
2018-11-02T04:31:18.264Z,1000.85
2018-11-02T04:32:18.277Z,1000.86
2018-11-02T04:33:18.299Z,1000.82
2018-11-02T04:34:18.315Z,1000.82
2018-11-02T04:35:18.392Z,1000.82
2018-11-02T04:36:18.356Z,1000.88
2018-11-02T04:37:18.370Z,1000.89
2018-11-02T04:38:18.392Z,1000.94
2018-11-02T04:39:18.410Z,1000.96
2018-11-02T04:40:18.466Z,1000.97
2018-11-02T04:41:18.454Z,1000.97
2018-11-02T04:42:18.483Z,1000.99
2018-11-02T04:43:18.492Z,1001.02
2018-11-02T04:44:18.510Z,1001.01
2018-11-02T04:45:18.577Z,1001.06
2018-11-02T04:46:18.551Z,1001.07
2018-11-02T04:47:18.564Z,1001.09
2018-11-02T04:48:18.597Z,1001.16
2018-11-02T04:49:18.606Z,1001.18
2018-11-02T04:50:18.634Z,1001.21
2018-11-02T04:51:18.661Z,1001.26
2018-11-02T04:52:18.692Z,1001.26
2018-11-02T04:53:18.705Z,1001.28
2018-11-02T04:54:18.709Z,1001.30
2018-11-02T04:55:18.727Z,1001.32
2018-11-02T04:56:18.743Z,1001.34
2018-11-02T04:57:18.778Z,1001.37
2018-11-02T04:58:18.784Z,1001.36
2018-11-02T04:59:18.806Z,1001.41
2018-11-02T05:00:18.824Z,1001.43
2018-11-02T05:01:18.846Z,1001.43
2018-11-02T05:02:18.860Z,1001.50
2018-11-02T05:03:18.885Z,1001.49
2018-11-02T05:04:18.899Z,1001.49
2018-11-02T05:05:18.919Z,1001.49
2018-11-02T05:06:18.939Z,1001.50
2018-11-02T05:07:18.961Z,1001.54
2018-11-02T05:08:18.977Z,1001.57
2018-11-02T05:09:19.001Z,1001.59
2018-11-02T05:10:19.018Z,1001.62
2018-11-02T05:11:19.081Z,1001.63
2018-11-02T05:12:19.054Z,1001.70
2018-11-02T05:13:19.074Z,1001.70
2018-11-02T05:14:19.102Z,1001.75
2018-11-02T05:15:19.117Z,1001.75
2018-11-02T05:16:19.140Z,1001.71
2018-11-02T05:17:19.153Z,1001.72
2018-11-02T05:18:19.182Z,1001.71
2018-11-02T05:19:19.197Z,1001.78
2018-11-02T05:20:19.217Z,1001.80
2018-11-02T05:21:19.357Z,1001.80
2018-11-02T05:22:19.253Z,1001.77
2018-11-02T05:23:19.271Z,1001.82
2018-11-02T05:24:19.291Z,1001.91
2018-11-02T05:25:19.312Z,1001.95
2018-11-02T05:26:19.343Z,1001.97
2018-11-02T05:27:19.371Z,1001.97
2018-11-02T05:28:19.382Z,1001.96
2018-11-02T05:29:19.390Z,1002.00
2018-11-02T05:30:19.415Z,1002.01
2018-11-02T05:31:19.431Z,1002.00
2018-11-02T05:32:19.460Z,1002.06
2018-11-02T05:33:19.473Z,1002.11
2018-11-02T05:34:19.489Z,1002.09
2018-11-02T05:35:19.515Z,1002.16
2018-11-02T05:36:19.532Z,1002.19
2018-11-02T05:37:19.550Z,1002.18
2018-11-02T05:38:19.573Z,1002.20
2018-11-02T05:39:19.660Z,1002.21
2018-11-02T05:40:19.609Z,1002.26
2018-11-02T05:41:19.629Z,1002.28
2018-11-02T05:42:19.647Z,1002.27
2018-11-02T05:43:19.677Z,1002.27
2018-11-02T05:44:19.692Z,1002.28
2018-11-02T05:45:19.712Z,1002.31
2018-11-02T05:46:19.739Z,1002.34
2018-11-02T05:47:19.852Z,1002.35
2018-11-02T05:48:19.774Z,1002.38
2018-11-02T05:49:19.799Z,1002.37
2018-11-02T05:50:19.810Z,1002.39
2018-11-02T05:51:19.831Z,1002.38
2018-11-02T05:52:19.857Z,1002.36
2018-11-02T05:53:19.879Z,1002.39
2018-11-02T05:54:19.962Z,1002.37
2018-11-02T05:55:19.907Z,1002.43
2018-11-02T05:56:19.930Z,1002.42
2018-11-02T05:57:19.947Z,1002.46
2018-11-02T05:58:19.975Z,1002.50
2018-11-02T05:59:19.988Z,1002.53
2018-11-02T06:00:20.024Z,1002.53
2018-11-02T06:01:20.069Z,1002.60
2018-11-02T06:02:20.052Z,1002.62
2018-11-02T06:03:20.079Z,1002.64
2018-11-02T06:04:20.090Z,1002.68
2018-11-02T06:05:20.119Z,1002.68
2018-11-02T06:06:20.130Z,1002.69
2018-11-02T06:07:20.146Z,1002.75
2018-11-02T06:08:20.167Z,1002.77
2018-11-02T06:09:20.186Z,1002.79
2018-11-02T06:10:20.211Z,1002.80
2018-11-02T06:11:20.236Z,1002.85
2018-11-02T06:12:20.268Z,1002.87
2018-11-02T06:13:20.277Z,1002.86
2018-11-02T06:14:20.295Z,1002.90
2018-11-02T06:15:20.312Z,1002.88
2018-11-02T06:16:20.328Z,1002.85
2018-11-02T06:17:20.350Z,1002.88
2018-11-02T06:18:20.367Z,1002.92
2018-11-02T06:19:20.390Z,1002.91
2018-11-02T06:20:20.414Z,1002.97
2018-11-02T06:21:20.437Z,1002.98
2018-11-02T06:22:20.456Z,1003.00
2018-11-02T06:23:20.480Z,1003.04
2018-11-02T06:24:20.528Z,1003.07
2018-11-02T06:25:20.519Z,1003.11
2018-11-02T06:26:20.550Z,1003.17
2018-11-02T06:27:20.550Z,1003.22
2018-11-02T06:28:20.565Z,1003.25
2018-11-02T06:29:20.599Z,1003.26
2018-11-02T06:30:20.665Z,1003.34
2018-11-02T06:31:20.626Z,1003.34
2018-11-02T06:32:20.688Z,1003.37
2018-11-02T06:33:20.666Z,1003.39
2018-11-02T06:34:20.700Z,1003.41
2018-11-02T06:35:20.717Z,1003.43
2018-11-02T06:36:20.734Z,1003.46
2018-11-02T06:37:20.744Z,1003.47
2018-11-02T06:38:20.766Z,1003.47
2018-11-02T06:39:20.797Z,1003.51
2018-11-02T06:40:20.810Z,1003.56
2018-11-02T06:41:20.830Z,1003.55
2018-11-02T06:42:20.853Z,1003.61
2018-11-02T06:43:20.875Z,1003.62
2018-11-02T06:44:20.959Z,1003.67
2018-11-02T06:45:20.912Z,1003.65
2018-11-02T06:46:20.925Z,1003.66
2018-11-02T06:47:20.945Z,1003.74
2018-11-02T06:48:20.973Z,1003.71
2018-11-02T06:49:20.985Z,1003.75
2018-11-02T06:50:21.001Z,1003.74
2018-11-02T06:51:21.021Z,1003.74
2018-11-02T06:52:21.037Z,1003.80
2018-11-02T06:53:21.061Z,1003.79
2018-11-02T06:54:21.080Z,1003.79
2018-11-02T06:55:21.100Z,1003.82
2018-11-02T06:56:21.121Z,1003.83
2018-11-02T06:57:21.135Z,1003.90
2018-11-02T06:58:21.156Z,1003.94
2018-11-02T06:59:21.268Z,1004.04
2018-11-02T07:00:21.347Z,1004.18
2018-11-02T07:01:21.227Z,1004.11
2018-11-02T07:02:21.234Z,1003.97
2018-11-02T07:03:21.259Z,1003.92
2018-11-02T07:04:21.282Z,1003.97
2018-11-02T07:05:21.302Z,1003.90
2018-11-02T07:06:21.316Z,1003.92
2018-11-02T07:07:21.426Z,1003.96
2018-11-02T07:08:21.451Z,1003.98
2018-11-02T07:09:21.371Z,1004.06
2018-11-02T07:10:21.394Z,1004.17
2018-11-02T07:11:21.416Z,1004.19
2018-11-02T07:12:21.435Z,1004.17
2018-11-02T07:13:21.452Z,1004.24
2018-11-02T07:14:21.477Z,1004.30
2018-11-02T07:15:21.499Z,1004.24
2018-11-02T07:16:21.512Z,1004.23
2018-11-02T07:17:21.552Z,1004.29
2018-11-02T07:18:21.576Z,1004.28
2018-11-02T07:19:21.580Z,1004.31
2018-11-02T07:20:21.596Z,1004.31
2018-11-02T07:21:21.624Z,1004.35
2018-11-02T07:22:21.642Z,1004.32
2018-11-02T07:23:21.663Z,1004.35
2018-11-02T07:24:21.687Z,1004.40
2018-11-02T07:25:21.779Z,1004.46
2018-11-02T07:26:21.745Z,1004.49
2018-11-02T07:27:21.771Z,1004.49
2018-11-02T07:28:21.780Z,1004.52
2018-11-02T07:29:21.816Z,1004.58
2018-11-02T07:30:21.830Z,1004.56
2018-11-02T07:31:21.846Z,1004.55
2018-11-02T07:32:21.872Z,1004.49
2018-11-02T07:33:21.892Z,1004.54
2018-11-02T07:34:21.928Z,1004.52
2018-11-02T07:35:21.941Z,1004.54
2018-11-02T07:36:21.966Z,1004.52
2018-11-02T07:37:21.990Z,1004.59
2018-11-02T07:38:22.025Z,1004.54
2018-11-02T07:39:22.039Z,1004.54
2018-11-02T07:40:22.100Z,1004.51
2018-11-02T07:41:22.095Z,1004.55
2018-11-02T07:42:22.112Z,1004.56
2018-11-02T07:43:22.139Z,1004.58
2018-11-02T07:44:22.161Z,1004.61
2018-11-02T07:45:22.190Z,1004.61
2018-11-02T07:46:22.211Z,1004.63
2018-11-02T07:47:22.274Z,1004.62
2018-11-02T07:48:22.259Z,1004.65
2018-11-02T07:49:22.348Z,1004.63
2018-11-02T07:50:22.311Z,1004.68
2018-11-02T07:51:22.381Z,1004.62
2018-11-02T07:52:22.364Z,1004.83
2018-11-02T07:53:22.384Z,1004.75
2018-11-02T07:54:22.412Z,1004.80
2018-11-02T07:55:22.437Z,1004.80
2018-11-02T07:56:22.460Z,1004.84
2018-11-02T07:57:22.537Z,1004.84
2018-11-02T07:58:22.506Z,1004.84
2018-11-02T07:59:22.560Z,1004.74
2018-11-02T08:00:22.558Z,1004.79
2018-11-02T08:01:22.591Z,1004.88
2018-11-02T08:02:22.608Z,1004.86
2018-11-02T08:03:22.631Z,1004.85
2018-11-02T08:04:22.653Z,1004.80
2018-11-02T08:05:22.681Z,1004.67
2018-11-02T08:06:22.706Z,1004.68
2018-11-02T08:07:22.724Z,1004.66
2018-11-02T08:08:22.756Z,1004.66
2018-11-02T08:09:22.782Z,1004.67
2018-11-02T08:10:22.800Z,1004.69
2018-11-02T08:11:22.876Z,1004.77
2018-11-02T08:12:22.851Z,1004.87
2018-11-02T08:13:22.874Z,1004.97
2018-11-02T08:14:22.895Z,1004.86
2018-11-02T08:15:22.916Z,1004.87
2018-11-02T08:16:22.948Z,1004.95
2018-11-02T08:17:22.971Z,1005.00
2018-11-02T08:18:22.982Z,1005.12
2018-11-02T08:19:23.007Z,1005.02
2018-11-02T08:20:23.026Z,1005.13
2018-11-02T08:21:23.072Z,1005.18
2018-11-02T08:22:23.075Z,1005.24
2018-11-02T08:23:23.097Z,1005.12
2018-11-02T08:24:23.119Z,1005.05
2018-11-02T08:25:23.138Z,1005.02
2018-11-02T08:26:23.157Z,1005.14
2018-11-02T08:27:23.179Z,1005.23
2018-11-02T08:28:23.206Z,1005.24
2018-11-02T08:29:23.222Z,1005.31
2018-11-02T08:30:23.245Z,1005.47
2018-11-02T08:31:23.267Z,1005.45
2018-11-02T08:32:23.294Z,1005.45
2018-11-02T08:33:23.311Z,1005.52
2018-11-02T08:34:23.333Z,1005.50
2018-11-02T08:35:23.349Z,1005.55
2018-11-02T08:36:23.376Z,1005.61
2018-11-02T08:37:23.393Z,1005.56
2018-11-02T08:38:23.418Z,1005.44
2018-11-02T08:39:23.459Z,1005.57
2018-11-02T08:40:23.458Z,1005.60
2018-11-02T08:41:23.480Z,1005.62
2018-11-02T08:42:23.502Z,1005.75
2018-11-02T08:43:23.523Z,1005.70
2018-11-02T08:44:23.549Z,1005.77
2018-11-02T08:45:23.573Z,1005.74
2018-11-02T08:46:23.669Z,1005.60
2018-11-02T08:47:23.606Z,1005.65
2018-11-02T08:48:23.632Z,1005.63
2018-11-02T08:49:23.652Z,1005.51
2018-11-02T08:50:23.673Z,1005.53
2018-11-02T08:51:23.694Z,1005.53
2018-11-02T08:52:23.836Z,1005.45
2018-11-02T08:53:23.739Z,1005.50
2018-11-02T08:54:23.768Z,1005.54
2018-11-02T08:55:23.813Z,1005.61
2018-11-02T08:56:23.812Z,1005.66
2018-11-02T08:57:23.851Z,1005.77
2018-11-02T08:58:24.021Z,1005.89
2018-11-02T08:59:23.974Z,1005.86
2018-11-02T09:00:23.889Z,1006.05
2018-11-02T09:01:23.915Z,1006.20
2018-11-02T09:02:23.931Z,1006.10
2018-11-02T09:03:23.957Z,1006.01
2018-11-02T09:04:23.968Z,1006.10
2018-11-02T09:05:24.009Z,1006.15
2018-11-02T09:06:24.015Z,1006.15
2018-11-02T09:07:24.052Z,1006.13
2018-11-02T09:08:24.053Z,1006.08
2018-11-02T09:09:24.082Z,1006.10
2018-11-02T09:10:24.104Z,1006.16
2018-11-02T09:11:24.126Z,1006.16
2018-11-02T09:12:24.151Z,1006.10
2018-11-02T09:13:24.161Z,1006.04
2018-11-02T09:14:24.177Z,1006.06
2018-11-02T09:15:24.205Z,1006.09
2018-11-02T09:16:24.225Z,1006.02
2018-11-02T09:17:24.242Z,1006.06
2018-11-02T09:18:24.344Z,1006.06
2018-11-02T09:19:24.352Z,1006.07
2018-11-02T09:20:24.313Z,1006.06
2018-11-02T09:21:24.332Z,1006.08
2018-11-02T09:22:24.373Z,1006.09
2018-11-02T09:23:24.373Z,1006.15
2018-11-02T09:24:24.396Z,1006.13
2018-11-02T09:25:24.425Z,1006.12
2018-11-02T09:26:24.446Z,1006.19
2018-11-02T09:27:24.555Z,1006.16
2018-11-02T09:28:24.481Z,1006.23
2018-11-02T09:29:24.535Z,1006.21
2018-11-02T09:30:24.526Z,1006.22
2018-11-02T09:31:24.550Z,1006.17
2018-11-02T09:32:24.563Z,1006.16
2018-11-02T09:33:24.596Z,1006.17
2018-11-02T09:34:24.609Z,1006.19
2018-11-02T09:35:24.632Z,1006.22
2018-11-02T09:36:24.646Z,1006.24
2018-11-02T09:37:24.675Z,1006.28
2018-11-02T09:38:24.694Z,1006.30
2018-11-02T09:39:24.731Z,1006.32
2018-11-02T09:40:24.806Z,1006.32
2018-11-02T09:41:24.754Z,1006.34
2018-11-02T09:42:24.832Z,1006.36
2018-11-02T09:43:24.798Z,1006.37
2018-11-02T09:44:24.826Z,1006.37
2018-11-02T09:45:24.844Z,1006.43
2018-11-02T09:46:24.876Z,1006.42
2018-11-02T09:47:24.884Z,1006.49
2018-11-02T09:48:24.909Z,1006.48
2018-11-02T09:49:24.925Z,1006.53
2018-11-02T09:50:24.942Z,1006.52
2018-11-02T09:51:25.035Z,1006.54
2018-11-02T09:52:24.985Z,1006.57
2018-11-02T09:53:25.002Z,1006.54
2018-11-02T09:54:25.026Z,1006.58
2018-11-02T09:55:25.052Z,1006.61
2018-11-02T09:56:25.068Z,1006.60
2018-11-02T09:57:25.144Z,1006.60
2018-11-02T09:58:25.112Z,1006.63
2018-11-02T09:59:25.125Z,1006.65
2018-11-02T10:00:25.158Z,1006.69
2018-11-02T10:01:25.176Z,1006.68
2018-11-02T10:02:25.198Z,1006.62
2018-11-02T10:03:25.211Z,1006.64
2018-11-02T10:04:25.233Z,1006.67
2018-11-02T10:05:25.272Z,1006.70
2018-11-02T10:06:25.274Z,1006.76
2018-11-02T10:07:25.305Z,1006.76
2018-11-02T10:08:25.367Z,1006.78
2018-11-02T10:09:25.341Z,1006.83
2018-11-02T10:10:25.375Z,1006.88
2018-11-02T10:11:25.381Z,1006.91
2018-11-02T10:12:25.412Z,1006.93
2018-11-02T10:13:25.425Z,1006.90
2018-11-02T10:14:25.445Z,1006.95
2018-11-02T10:15:25.472Z,1007.02
2018-11-02T10:16:25.491Z,1006.98
2018-11-02T10:17:25.510Z,1006.96
2018-11-02T10:18:25.537Z,1007.00
2018-11-02T10:19:25.548Z,1007.01
2018-11-02T10:20:25.579Z,1007.02
2018-11-02T10:21:25.637Z,1007.03
2018-11-02T10:22:25.611Z,1007.06
2018-11-02T10:23:25.632Z,1007.14
2018-11-02T10:24:25.658Z,1007.12
2018-11-02T10:25:25.692Z,1007.18
2018-11-02T10:26:25.700Z,1007.22
2018-11-02T10:27:25.733Z,1007.27
2018-11-02T10:28:25.740Z,1007.22
2018-11-02T10:29:25.762Z,1007.27
2018-11-02T10:30:25.783Z,1007.28
2018-11-02T10:31:25.822Z,1007.30
2018-11-02T10:32:25.842Z,1007.34
2018-11-02T10:33:25.844Z,1007.31
2018-11-02T10:34:25.877Z,1007.35
2018-11-02T10:35:25.939Z,1007.33
2018-11-02T10:36:25.917Z,1007.28
2018-11-02T10:37:25.946Z,1007.29
2018-11-02T10:38:25.960Z,1007.30
2018-11-02T10:39:26.047Z,1007.28
2018-11-02T10:40:25.998Z,1007.26
2018-11-02T10:41:26.029Z,1007.27
2018-11-02T10:42:26.049Z,1007.32
2018-11-02T10:43:26.070Z,1007.28
2018-11-02T10:44:26.164Z,1007.19
2018-11-02T10:45:26.162Z,1007.24
2018-11-02T10:46:26.125Z,1007.26
2018-11-02T10:47:26.153Z,1007.22
2018-11-02T10:48:26.176Z,1007.34
2018-11-02T10:49:26.254Z,1007.33
2018-11-02T10:50:26.218Z,1007.35
2018-11-02T10:51:26.253Z,1007.36
2018-11-02T10:52:26.268Z,1007.39
2018-11-02T10:53:26.287Z,1007.42
2018-11-02T10:54:26.347Z,1007.43
2018-11-02T10:55:26.337Z,1007.38
2018-11-02T10:56:26.368Z,1007.38
2018-11-02T10:57:26.371Z,1007.38
2018-11-02T10:58:26.398Z,1007.32
2018-11-02T10:59:26.416Z,1007.42
2018-11-02T11:00:26.436Z,1007.36
2018-11-02T11:01:26.509Z,1007.35
2018-11-02T11:02:26.486Z,1007.36
2018-11-02T11:03:26.501Z,1007.36
2018-11-02T11:04:26.530Z,1007.40
2018-11-02T11:05:26.580Z,1007.41
2018-11-02T11:06:26.570Z,1007.33
2018-11-02T11:07:26.608Z,1007.34
2018-11-02T11:08:26.610Z,1007.35
2018-11-02T11:09:26.631Z,1007.36
2018-11-02T11:10:26.682Z,1007.39
2018-11-02T11:11:26.710Z,1007.35
2018-11-02T11:12:26.867Z,1007.36
2018-11-02T11:13:27.195Z,1007.41
2018-11-02T11:14:26.745Z,1007.46
2018-11-02T11:15:26.766Z,1007.44
2018-11-02T11:16:26.793Z,1007.45
2018-11-02T11:17:26.840Z,1007.43
2018-11-02T11:18:26.834Z,1007.44
2018-11-02T11:19:26.859Z,1007.37
2018-11-02T11:20:26.896Z,1007.37
2018-11-02T11:21:27.013Z,1007.32
2018-11-02T11:22:26.920Z,1007.29
2018-11-02T11:23:26.954Z,1007.26
2018-11-02T11:24:26.960Z,1007.29
2018-11-02T11:25:26.988Z,1007.25
2018-11-02T11:26:27.018Z,1007.32
2018-11-02T11:27:27.022Z,1007.29
2018-11-02T11:28:27.053Z,1007.30
2018-11-02T11:29:27.179Z,1007.32
2018-11-02T11:30:27.091Z,1007.35
2018-11-02T11:31:27.107Z,1007.37
2018-11-02T11:32:27.133Z,1007.35
2018-11-02T11:33:27.149Z,1007.40
2018-11-02T11:34:27.173Z,1007.36
2018-11-02T11:35:27.195Z,1007.49
2018-11-02T11:36:27.213Z,1007.50
2018-11-02T11:37:27.259Z,1007.50
2018-11-02T11:38:27.263Z,1007.59
2018-11-02T11:39:27.306Z,1007.66
2018-11-02T11:40:27.300Z,1007.70
2018-11-02T11:41:27.319Z,1007.75
2018-11-02T11:42:27.335Z,1007.78
2018-11-02T11:43:27.359Z,1007.79
2018-11-02T11:44:27.389Z,1007.79
2018-11-02T11:45:27.398Z,1007.82
2018-11-02T11:46:27.423Z,1007.81
2018-11-02T11:47:27.443Z,1007.77
2018-11-02T11:48:27.495Z,1007.76
2018-11-02T11:49:27.481Z,1007.71
2018-11-02T11:50:27.507Z,1007.67
2018-11-02T11:51:27.533Z,1007.63
2018-11-02T11:52:27.548Z,1007.65
2018-11-02T11:53:27.569Z,1007.66
2018-11-02T11:54:27.652Z,1007.65
2018-11-02T11:55:27.611Z,1007.67
2018-11-02T11:56:27.633Z,1007.68
2018-11-02T11:57:27.662Z,1007.75
2018-11-02T11:58:27.677Z,1007.80
2018-11-02T11:59:27.709Z,1007.83
2018-11-02T12:00:27.723Z,1007.82
2018-11-02T12:01:27.746Z,1007.83
2018-11-02T12:02:27.896Z,1007.87
2018-11-02T12:03:27.783Z,1007.89
2018-11-02T12:04:28.025Z,1007.78
2018-11-02T12:05:27.826Z,1007.80
2018-11-02T12:06:27.844Z,1007.79
2018-11-02T12:07:27.892Z,1007.84
2018-11-02T12:08:27.881Z,1007.85
2018-11-02T12:09:27.900Z,1007.93
2018-11-02T12:10:28.034Z,1007.89
2018-11-02T12:11:27.948Z,1007.87